createdAt,value
2018-10-18T00:01:33.713Z,10.90
2018-10-18T00:04:02.842Z,15.87
2018-10-18T00:06:32.025Z,12.20
2018-10-18T00:09:01.173Z,13.50
2018-10-18T00:11:30.665Z,14.40
2018-10-18T00:14:00.000Z,12.53
2018-10-18T00:16:29.507Z,12.70
2018-10-18T00:18:58.729Z,12.60
2018-10-18T00:21:27.872Z,11.73
2018-10-18T00:23:57.035Z,13.00
2018-10-18T00:26:26.482Z,12.87
2018-10-18T00:28:55.773Z,13.47
2018-10-18T00:31:25.084Z,12.10
2018-10-18T00:33:54.360Z,13.70
2018-10-18T00:36:23.585Z,17.77
2018-10-18T00:38:52.678Z,16.53
2018-10-18T00:41:22.045Z,14.90
2018-10-18T00:43:51.276Z,13.10
2018-10-18T00:46:20.573Z,12.53
2018-10-18T00:48:50.032Z,11.57
2018-10-18T00:51:19.480Z,15.90
2018-10-18T00:53:48.685Z,16.40
2018-10-18T00:56:17.887Z,15.63
2018-10-18T00:58:47.394Z,18.53
2018-10-18T01:01:16.689Z,17.13
2018-10-18T01:03:46.265Z,14.90
2018-10-18T01:06:15.541Z,16.40
2018-10-18T01:08:44.785Z,18.07
2018-10-18T01:11:14.113Z,18.00
2018-10-18T01:13:43.176Z,15.70
2018-10-18T01:16:12.497Z,14.83
2018-10-18T01:18:41.829Z,23.23
2018-10-18T01:21:11.075Z,17.73
2018-10-18T01:23:40.293Z,19.73
2018-10-18T01:26:09.587Z,24.30
2018-10-18T01:28:39.149Z,21.13
2018-10-18T01:31:08.377Z,21.73
2018-10-18T01:33:37.638Z,19.83
2018-10-18T01:36:06.959Z,20.50
2018-10-18T01:38:36.353Z,24.63
2018-10-18T01:41:05.561Z,15.43
2018-10-18T01:43:34.677Z,20.03
2018-10-18T01:46:03.829Z,25.60
2018-10-18T01:48:33.117Z,21.80
2018-10-18T01:51:02.366Z,44.70
2018-10-18T01:53:31.674Z,34.47
2018-10-18T01:56:01.284Z,17.70
2018-10-18T01:58:30.494Z,15.90
2018-10-18T02:00:59.676Z,21.27
2018-10-18T02:03:29.001Z,21.43
2018-10-18T02:06:00.442Z,19.43
2018-10-18T02:08:29.906Z,30.40
2018-10-18T02:10:59.149Z,34.40
2018-10-18T02:13:28.270Z,25.70
2018-10-18T02:15:57.903Z,43.57
2018-10-18T02:18:27.229Z,27.00
2018-10-18T02:20:56.337Z,21.77
2018-10-18T02:23:25.650Z,25.63
2018-10-18T02:25:54.828Z,25.40
2018-10-18T02:28:23.932Z,19.67
2018-10-18T02:30:53.425Z,21.97
2018-10-18T02:33:22.721Z,22.37
2018-10-18T02:35:51.937Z,18.50
2018-10-18T02:38:21.453Z,19.33
2018-10-18T02:40:50.493Z,16.10
2018-10-18T02:43:19.613Z,18.10
2018-10-18T02:45:48.769Z,20.17
2018-10-18T02:48:18.132Z,19.17
2018-10-18T02:50:47.414Z,22.97
2018-10-18T02:53:16.941Z,20.20
2018-10-18T02:55:46.031Z,19.50
2018-10-18T02:58:15.234Z,18.13
2018-10-18T03:00:44.465Z,18.70
2018-10-18T03:03:13.758Z,20.87
2018-10-18T03:05:42.929Z,24.60
2018-10-18T03:08:12.293Z,23.17
2018-10-18T03:10:41.637Z,23.80
2018-10-18T03:13:10.941Z,19.10
2018-10-18T03:15:40.199Z,18.03
2018-10-18T03:18:09.533Z,20.47
2018-10-18T03:20:38.849Z,20.97
2018-10-18T03:23:08.373Z,21.43
2018-10-18T03:25:37.666Z,17.77
2018-10-18T03:28:06.837Z,25.07
2018-10-18T03:30:36.204Z,23.27
2018-10-18T03:33:05.657Z,25.60
2018-10-18T03:35:34.745Z,29.97
2018-10-18T03:38:04.058Z,19.10
2018-10-18T03:40:33.447Z,21.47
2018-10-18T03:43:02.837Z,22.07
2018-10-18T03:45:32.281Z,19.60
2018-10-18T03:48:01.526Z,21.83
2018-10-18T03:50:30.864Z,20.97
2018-10-18T03:53:00.313Z,17.63
2018-10-18T03:55:29.562Z,21.67
2018-10-18T03:57:58.855Z,21.17
2018-10-18T04:00:28.426Z,15.93
2018-10-18T04:02:57.583Z,18.67
2018-10-18T04:05:27.049Z,20.70
2018-10-18T04:07:56.680Z,16.63
2018-10-18T04:10:25.973Z,19.00
2018-10-18T04:12:55.282Z,18.20
2018-10-18T04:15:24.645Z,20.00
2018-10-18T04:17:53.944Z,16.80
2018-10-18T04:20:23.386Z,15.87
2018-10-18T04:22:52.797Z,17.93
2018-10-18T04:25:22.013Z,23.93
2018-10-18T04:27:51.297Z,23.10
2018-10-18T04:30:20.802Z,25.47
2018-10-18T04:32:49.992Z,30.50
2018-10-18T04:35:19.192Z,36.97
2018-10-18T04:37:48.697Z,27.60
2018-10-18T04:40:17.997Z,46.63
2018-10-18T04:42:47.193Z,38.70
2018-10-18T04:45:17.440Z,42.30
2018-10-18T04:47:46.712Z,41.07
2018-10-18T04:50:16.010Z,73.57
2018-10-18T04:52:45.250Z,57.57
2018-10-18T04:55:14.341Z,45.67
2018-10-18T04:57:43.805Z,39.23
2018-10-18T05:00:13.327Z,39.23
2018-10-18T05:02:42.455Z,42.23
2018-10-18T05:05:22.437Z,46.43
2018-10-18T05:07:51.570Z,31.17
2018-10-18T05:10:20.752Z,36.03
2018-10-18T05:12:50.197Z,49.53
2018-10-18T05:15:19.457Z,35.70
2018-10-18T05:17:48.653Z,23.70
2018-10-18T05:20:18.213Z,17.83
2018-10-18T05:22:47.465Z,24.33
2018-10-18T05:25:16.685Z,19.27
2018-10-18T05:27:45.989Z,59.53
2018-10-18T05:30:15.164Z,32.23
2018-10-18T05:32:44.453Z,16.47
2018-10-18T05:35:14.065Z,19.13
2018-10-18T05:37:43.421Z,22.33
2018-10-18T05:40:12.837Z,20.90
2018-10-18T05:42:42.477Z,17.40
2018-10-18T05:45:11.758Z,122.60
2018-10-18T05:47:41.141Z,62.70
2018-10-18T05:50:11.197Z,27.10
2018-10-18T05:52:40.479Z,19.03
2018-10-18T05:55:11.445Z,19.20
2018-10-18T05:57:41.509Z,38.53
2018-10-18T06:00:14.358Z,19.80
2018-10-18T06:02:43.901Z,19.20
2018-10-18T06:05:14.217Z,15.57
2018-10-18T06:07:43.762Z,17.30
2018-10-18T06:10:24.690Z,14.77
2018-10-18T06:12:54.083Z,18.47
2018-10-18T06:15:23.741Z,19.10
2018-10-18T06:17:53.105Z,16.80
2018-10-18T06:20:22.421Z,20.10
2018-10-18T06:22:51.581Z,18.97
2018-10-18T06:25:21.269Z,29.00
2018-10-18T06:27:50.555Z,21.27
2018-10-18T06:30:19.770Z,25.40
2018-10-18T06:32:49.152Z,15.27
2018-10-18T06:35:18.554Z,19.97
2018-10-18T06:37:47.757Z,17.50
2018-10-18T06:40:18.298Z,18.00
2018-10-18T06:42:47.888Z,12.07
2018-10-18T06:45:19.229Z,14.70
2018-10-18T06:47:48.860Z,14.30
2018-10-18T06:50:20.265Z,14.33
2018-10-18T06:52:49.475Z,12.50
2018-10-18T06:55:18.642Z,14.53
2018-10-18T06:57:48.037Z,16.17
2018-10-18T07:00:24.474Z,15.10
2018-10-18T07:02:54.070Z,13.80
2018-10-18T07:05:23.367Z,11.37
2018-10-18T07:07:52.583Z,14.03
2018-10-18T07:10:22.085Z,14.73
2018-10-18T07:12:51.173Z,20.07
2018-10-18T07:15:20.373Z,12.67
2018-10-18T07:17:49.845Z,16.87
2018-10-18T07:20:19.377Z,15.73
2018-10-18T07:22:48.667Z,15.53
2018-10-18T07:25:18.287Z,23.27
2018-10-18T07:27:47.678Z,26.07
2018-10-18T07:30:16.812Z,23.37
2018-10-18T07:32:46.497Z,20.63
2018-10-18T07:35:15.693Z,23.73
2018-10-18T07:37:44.785Z,18.50
2018-10-18T07:40:15.935Z,16.53
2018-10-18T07:42:45.329Z,16.07
2018-10-18T07:45:15.149Z,25.30
2018-10-18T07:47:44.810Z,23.17
2018-10-18T07:50:14.145Z,17.10
2018-10-18T07:52:43.564Z,18.63
2018-10-18T07:55:13.161Z,18.50
2018-10-18T07:57:42.209Z,14.63
2018-10-18T08:00:13.786Z,20.83
2018-10-18T08:02:43.867Z,30.27
2018-10-18T08:05:13.493Z,23.63
2018-10-18T08:07:42.605Z,27.03
2018-10-18T08:10:14.769Z,28.83
2018-10-18T08:12:43.982Z,38.27
2018-10-18T08:15:14.379Z,35.03
2018-10-18T08:17:44.153Z,36.60
2018-10-18T08:20:13.897Z,22.80
2018-10-18T08:22:43.835Z,30.77
2018-10-18T08:25:13.206Z,18.90
2018-10-18T08:27:42.452Z,20.83
2018-10-18T08:30:13.090Z,19.80
2018-10-18T08:32:42.390Z,21.27
2018-10-18T08:35:12.477Z,22.03
2018-10-18T08:37:42.053Z,18.03
2018-10-18T08:40:11.426Z,18.80
2018-10-18T08:42:40.592Z,17.43
2018-10-18T08:45:10.889Z,24.90
2018-10-18T08:47:39.961Z,20.27
2018-10-18T08:50:10.829Z,24.27
2018-10-18T08:52:40.157Z,26.60
2018-10-18T08:55:12.634Z,16.63
2018-10-18T08:57:42.925Z,19.47
2018-10-18T09:00:13.292Z,23.90
2018-10-18T09:02:43.032Z,20.87
2018-10-18T09:05:12.337Z,31.97
2018-10-18T09:07:41.715Z,24.60
2018-10-18T09:10:11.066Z,21.63
2018-10-18T09:12:40.264Z,18.77
2018-10-18T09:15:10.399Z,19.60
2018-10-18T09:17:39.805Z,21.67
2018-10-18T09:20:09.172Z,23.63
2018-10-18T09:22:38.572Z,23.17
2018-10-18T09:25:09.857Z,24.67
2018-10-18T09:27:39.548Z,18.53
2018-10-18T09:30:10.242Z,19.80
2018-10-18T09:32:39.539Z,20.17
2018-10-18T09:35:08.681Z,17.63
2018-10-18T09:37:38.010Z,21.73
2018-10-18T09:40:09.037Z,23.77
2018-10-18T09:42:38.405Z,20.97
2018-10-18T09:45:09.689Z,18.07
2018-10-18T09:47:38.904Z,19.50
2018-10-18T09:50:08.549Z,14.80
2018-10-18T09:52:38.017Z,20.27
2018-10-18T09:55:09.770Z,17.07
2018-10-18T09:57:39.221Z,20.13
2018-10-18T10:00:13.105Z,25.43
2018-10-18T10:02:47.590Z,18.67
2018-10-18T10:05:16.873Z,19.07
2018-10-18T10:07:46.249Z,25.80
2018-10-18T10:10:15.541Z,18.00
2018-10-18T10:12:44.789Z,22.63
2018-10-18T10:15:13.890Z,17.47
2018-10-18T10:17:43.232Z,25.10
2018-10-18T10:20:12.581Z,69.63
2018-10-18T10:22:41.885Z,23.47
2018-10-18T10:25:11.212Z,15.77
2018-10-18T10:27:40.394Z,21.43
2018-10-18T10:30:09.960Z,15.60
2018-10-18T10:32:39.675Z,15.23
2018-10-18T10:35:09.356Z,22.77
2018-10-18T10:37:38.713Z,13.70
2018-10-18T10:40:09.091Z,17.23
2018-10-18T10:42:38.511Z,16.73
2018-10-18T10:45:09.152Z,15.90
2018-10-18T10:47:38.460Z,25.77
2018-10-18T10:50:08.186Z,14.30
2018-10-18T10:52:37.993Z,17.17
2018-10-18T10:55:08.783Z,15.33
2018-10-18T10:57:38.436Z,25.83
2018-10-18T11:00:08.070Z,21.30
2018-10-18T11:02:37.533Z,19.70
2018-10-18T11:05:07.293Z,21.20
2018-10-18T11:07:36.368Z,15.13
2018-10-18T11:10:05.689Z,19.03
2018-10-18T11:12:34.963Z,15.93
2018-10-18T11:15:04.475Z,20.23
2018-10-18T11:17:33.769Z,16.60
2018-10-18T11:20:04.367Z,30.43
2018-10-18T11:22:33.801Z,19.33
2018-10-18T11:25:02.999Z,21.43
2018-10-18T11:27:32.221Z,19.10
2018-10-18T11:30:01.349Z,19.50
2018-10-18T11:32:30.583Z,21.40
2018-10-18T11:35:00.097Z,17.07
2018-10-18T11:37:29.377Z,23.43
2018-10-18T11:39:58.679Z,19.27
2018-10-18T11:42:28.178Z,21.33
2018-10-18T11:44:57.487Z,24.73
2018-10-18T11:47:26.585Z,21.63
2018-10-18T11:49:55.974Z,19.70
2018-10-18T11:52:25.194Z,17.10
2018-10-18T11:54:54.273Z,15.83
2018-10-18T11:57:23.897Z,20.40
2018-10-18T11:59:53.002Z,20.33
2018-10-18T12:02:22.815Z,27.20
2018-10-18T12:04:52.391Z,30.90
2018-10-18T12:07:21.821Z,18.43
2018-10-18T12:09:50.901Z,18.97
2018-10-18T12:12:20.340Z,26.73
2018-10-18T12:14:49.397Z,21.50
2018-10-18T12:17:18.518Z,18.33
2018-10-18T12:19:48.058Z,15.43
2018-10-18T12:22:17.414Z,17.83
2018-10-18T12:24:46.694Z,179.77
2018-10-18T12:27:16.073Z,25.90
2018-10-18T12:29:45.309Z,21.30
2018-10-18T12:32:14.642Z,24.40
2018-10-18T12:34:45.153Z,16.83
2018-10-18T12:37:14.265Z,16.63
2018-10-18T12:39:43.531Z,23.57
2018-10-18T12:42:13.461Z,30.17
2018-10-18T12:44:42.932Z,17.63
2018-10-18T12:47:12.634Z,18.13
2018-10-18T12:49:42.801Z,23.20
2018-10-18T12:52:12.874Z,23.20
2018-10-18T12:54:42.163Z,28.07
2018-10-18T12:57:13.221Z,21.70
2018-10-18T12:59:42.560Z,20.07
2018-10-18T13:02:11.922Z,21.90
2018-10-18T13:04:41.873Z,30.23
2018-10-18T13:07:11.162Z,23.87
2018-10-18T13:09:40.361Z,23.20
2018-10-18T13:12:09.964Z,21.30
2018-10-18T13:14:39.272Z,36.60
2018-10-18T13:17:08.442Z,17.37
2018-10-18T13:19:37.969Z,23.70
2018-10-18T13:22:07.137Z,21.97
2018-10-18T13:24:36.432Z,20.40
2018-10-18T13:27:06.202Z,28.57
2018-10-18T13:29:35.438Z,30.23
2018-10-18T13:32:04.868Z,26.57
2018-10-18T13:34:34.582Z,39.90
2018-10-18T13:37:03.653Z,18.53
2018-10-18T13:39:32.649Z,17.60
2018-10-18T13:42:02.047Z,22.37
2018-10-18T13:44:31.238Z,20.60
2018-10-18T13:47:00.349Z,26.87
2018-10-18T13:49:29.577Z,21.10
2018-10-18T13:51:58.941Z,21.00
2018-10-18T13:54:28.233Z,35.87
2018-10-18T13:56:57.549Z,23.17
2018-10-18T13:59:37.741Z,26.93
2018-10-18T14:02:07.433Z,37.00
2018-10-18T14:04:36.950Z,23.00
2018-10-18T14:07:06.191Z,24.83
2018-10-18T14:09:35.685Z,20.80
2018-10-18T14:12:04.767Z,22.20
2018-10-18T14:14:33.947Z,24.77
2018-10-18T14:17:03.291Z,36.90
2018-10-18T14:19:32.583Z,31.70
2018-10-18T14:22:01.753Z,22.73
2018-10-18T14:24:31.285Z,68.30
2018-10-18T14:27:00.577Z,72.13
2018-10-18T14:29:29.746Z,45.47
2018-10-18T14:31:59.163Z,29.90
2018-10-18T14:34:28.569Z,33.67
2018-10-18T14:36:57.644Z,26.87
2018-10-18T14:39:26.899Z,27.00
2018-10-18T14:41:56.153Z,30.93
2018-10-18T14:44:25.427Z,25.90
2018-10-18T14:46:54.804Z,29.67
2018-10-18T14:49:24.073Z,24.37
2018-10-18T14:51:53.292Z,26.13
2018-10-18T14:54:22.857Z,23.20
2018-10-18T14:56:51.969Z,26.37
2018-10-18T14:59:21.045Z,21.80
2018-10-18T15:01:50.588Z,23.87
2018-10-18T15:04:19.897Z,25.23
2018-10-18T15:06:49.256Z,25.27
2018-10-18T15:09:20.758Z,23.17
2018-10-18T15:11:51.022Z,31.60
2018-10-18T15:14:20.885Z,27.43
2018-10-18T15:16:50.155Z,35.17
2018-10-18T15:19:19.333Z,41.80
2018-10-18T15:21:48.700Z,40.77
2018-10-18T15:24:17.837Z,41.60
2018-10-18T15:26:47.246Z,37.83
2018-10-18T15:29:17.718Z,49.13
2018-10-18T15:31:51.923Z,71.60
2018-10-18T15:34:21.333Z,45.83
2018-10-18T15:36:50.605Z,46.40
2018-10-18T15:39:19.916Z,42.70
2018-10-18T15:41:49.355Z,39.03
2018-10-18T15:44:18.665Z,39.47
2018-10-18T15:46:47.841Z,34.87
2018-10-18T15:49:17.021Z,37.50
2018-10-18T15:51:46.134Z,35.13
2018-10-18T15:54:15.427Z,43.07
2018-10-18T15:56:44.841Z,53.17
2018-10-18T15:59:14.241Z,75.43
2018-10-18T16:01:43.461Z,102.97
2018-10-18T16:04:12.885Z,85.07
2018-10-18T16:06:42.139Z,65.60
2018-10-18T16:09:13.254Z,53.93
2018-10-18T16:11:42.582Z,54.60
2018-10-18T16:14:12.010Z,43.50
2018-10-18T16:16:41.370Z,46.13
2018-10-18T16:19:10.684Z,39.83
2018-10-18T16:21:39.793Z,42.13
2018-10-18T16:24:09.188Z,43.20
2018-10-18T16:26:38.670Z,32.40
2018-10-18T16:29:08.032Z,36.23
2018-10-18T16:31:37.557Z,37.50
2018-10-18T16:34:07.721Z,41.70
2018-10-18T16:36:37.578Z,38.50
2018-10-18T16:39:10.826Z,34.77
2018-10-18T16:41:40.386Z,32.37
2018-10-18T16:44:09.732Z,42.83
2018-10-18T16:46:39.118Z,39.90
2018-10-18T16:49:08.477Z,53.50
2018-10-18T16:51:37.728Z,70.40
2018-10-18T16:54:07.399Z,90.80
2018-10-18T16:56:37.195Z,99.07
2018-10-18T16:59:06.505Z,98.77
2018-10-18T17:01:35.705Z,86.90
2018-10-18T17:04:05.971Z,81.10
2018-10-18T17:06:35.613Z,82.73
2018-10-18T17:09:07.627Z,92.83
2018-10-18T17:11:37.273Z,89.03
2018-10-18T17:14:06.612Z,64.43
2018-10-18T17:16:36.433Z,60.43
2018-10-18T17:19:05.733Z,49.30
2018-10-18T17:21:34.929Z,48.63
2018-10-18T17:24:04.194Z,48.43
2018-10-18T17:26:33.454Z,41.20
2018-10-18T17:29:02.762Z,38.67
2018-10-18T17:31:32.181Z,36.27
2018-10-18T17:34:01.484Z,39.13
2018-10-18T17:36:30.817Z,34.40
2018-10-18T17:39:00.270Z,35.47
2018-10-18T17:41:29.526Z,41.20
2018-10-18T17:43:58.664Z,39.43
2018-10-18T17:46:28.841Z,37.13
2018-10-18T17:48:58.114Z,45.80
2018-10-18T17:51:27.270Z,42.97
2018-10-18T17:53:56.471Z,52.47
2018-10-18T17:56:25.765Z,47.77
2018-10-18T17:58:55.022Z,52.83
2018-10-18T18:01:24.486Z,70.97
2018-10-18T18:03:53.719Z,84.10
2018-10-18T18:06:23.157Z,66.57
2018-10-18T18:08:52.357Z,63.87
2018-10-18T18:11:21.709Z,69.37
2018-10-18T18:13:51.001Z,53.10
2018-10-18T18:16:20.433Z,44.03
2018-10-18T18:18:49.513Z,36.17
2018-10-18T18:21:18.620Z,29.63
2018-10-18T18:23:48.250Z,29.83
2018-10-18T18:26:17.493Z,29.60
2018-10-18T18:28:46.442Z,23.93
2018-10-18T18:31:16.125Z,28.03
2018-10-18T18:33:45.525Z,21.43
2018-10-18T18:36:14.618Z,22.70
2018-10-18T18:38:43.954Z,25.63
2018-10-18T18:41:13.310Z,22.47
2018-10-18T18:43:42.465Z,25.57
2018-10-18T18:46:12.077Z,25.07
2018-10-18T18:48:41.258Z,24.33
2018-10-18T18:51:10.517Z,26.43
2018-10-18T18:53:39.901Z,24.07
2018-10-18T18:56:09.062Z,23.87
2018-10-18T18:58:38.242Z,25.87
2018-10-18T19:01:07.405Z,25.27
2018-10-18T19:03:36.742Z,28.87
2018-10-18T19:06:07.249Z,24.70
2018-10-18T19:08:36.577Z,31.90
2018-10-18T19:11:06.071Z,40.10
2018-10-18T19:13:35.666Z,38.13
2018-10-18T19:16:04.917Z,40.27
2018-10-18T19:18:34.165Z,33.83
2018-10-18T19:21:03.704Z,34.37
2018-10-18T19:23:33.258Z,29.30
2018-10-18T19:26:02.460Z,29.03
2018-10-18T19:28:32.238Z,60.63
2018-10-18T19:31:01.813Z,61.23
2018-10-18T19:33:31.017Z,41.17
2018-10-18T19:36:00.177Z,45.00
2018-10-18T19:38:29.354Z,45.50
2018-10-18T19:40:58.885Z,34.27
2018-10-18T19:43:28.238Z,32.73
2018-10-18T19:45:57.635Z,47.07
2018-10-18T19:48:26.893Z,38.97
2018-10-18T19:50:56.166Z,31.17
2018-10-18T19:53:25.389Z,33.70
2018-10-18T19:55:54.488Z,31.53
2018-10-18T19:58:24.332Z,34.57
2018-10-18T20:00:53.725Z,30.03
2018-10-18T20:03:22.897Z,24.57
2018-10-18T20:05:52.329Z,20.90
2018-10-18T20:08:22.225Z,22.53
2018-10-18T20:10:51.486Z,25.77
2018-10-18T20:13:21.013Z,36.27
2018-10-18T20:15:50.142Z,36.10
2018-10-18T20:18:19.349Z,34.03
2018-10-18T20:20:48.781Z,28.93
2018-10-18T20:23:18.142Z,29.37
2018-10-18T20:25:47.570Z,30.90
2018-10-18T20:28:16.881Z,27.43
2018-10-18T20:30:46.149Z,34.13
2018-10-18T20:33:15.214Z,36.83
2018-10-18T20:35:44.848Z,39.90
2018-10-18T20:38:14.109Z,33.33
2018-10-18T20:40:43.294Z,35.90
2018-10-18T20:43:12.714Z,31.13
2018-10-18T20:45:41.889Z,34.67
2018-10-18T20:48:11.352Z,37.00
2018-10-18T20:50:40.691Z,38.10
2018-10-18T20:53:09.985Z,38.20
2018-10-18T20:55:39.314Z,31.90
2018-10-18T20:58:08.705Z,36.80
2018-10-18T21:00:37.997Z,54.43
2018-10-18T21:03:07.241Z,51.60
2018-10-18T21:05:36.692Z,50.50
2018-10-18T21:08:05.821Z,46.83
2018-10-18T21:10:34.997Z,45.13
2018-10-18T21:13:04.379Z,50.27
2018-10-18T21:15:33.805Z,71.67
2018-10-18T21:18:02.906Z,61.07
2018-10-18T21:20:32.337Z,92.77
2018-10-18T21:23:01.563Z,65.60
2018-10-18T21:25:30.802Z,40.03
2018-10-18T21:28:00.074Z,35.03
2018-10-18T21:30:29.293Z,34.30
2018-10-18T21:32:58.618Z,25.87
2018-10-18T21:35:28.258Z,31.90
2018-10-18T21:37:57.413Z,22.83
2018-10-18T21:40:26.497Z,26.03
2018-10-18T21:42:55.919Z,32.13
2018-10-18T21:45:25.094Z,28.30
2018-10-18T21:47:54.496Z,27.33
2018-10-18T21:50:23.833Z,27.63
2018-10-18T21:52:53.110Z,26.63
2018-10-18T21:55:22.401Z,22.80
2018-10-18T21:57:51.761Z,22.07
2018-10-18T22:00:21.407Z,20.73
2018-10-18T22:02:50.593Z,22.20
2018-10-18T22:05:19.956Z,19.20
2018-10-18T22:07:49.106Z,23.00
2018-10-18T22:10:18.603Z,20.83
2018-10-18T22:12:48.129Z,20.80
2018-10-18T22:15:17.310Z,17.40
2018-10-18T22:17:46.502Z,22.00
2018-10-18T22:20:15.781Z,19.17
2018-10-18T22:22:45.221Z,21.43
2018-10-18T22:25:14.386Z,21.60
2018-10-18T22:27:43.921Z,20.60
2018-10-18T22:30:13.202Z,21.53
2018-10-18T22:32:42.414Z,21.63
2018-10-18T22:35:11.849Z,21.57
2018-10-18T22:37:41.137Z,19.77
2018-10-18T22:40:10.525Z,19.30
2018-10-18T22:42:40.281Z,20.50
2018-10-18T22:45:09.601Z,21.10
2018-10-18T22:47:38.821Z,18.93
2018-10-18T22:50:08.213Z,19.00
2018-10-18T22:52:37.418Z,18.97
2018-10-18T22:55:07.309Z,17.37
2018-10-18T22:57:36.554Z,19.40
2018-10-18T23:00:07.079Z,18.53
2018-10-18T23:02:36.586Z,23.20
2018-10-18T23:05:06.171Z,19.87
2018-10-18T23:07:35.649Z,22.93
2018-10-18T23:10:05.233Z,20.97
2018-10-18T23:12:34.481Z,23.60
2018-10-18T23:15:03.649Z,22.07
2018-10-18T23:17:33.405Z,24.47
2018-10-18T23:20:02.701Z,24.03
2018-10-18T23:22:31.905Z,24.30
2018-10-18T23:25:01.250Z,25.07
2018-10-18T23:27:32.127Z,25.93
2018-10-18T23:30:01.392Z,28.40
2018-10-18T23:32:30.725Z,24.60
2018-10-18T23:35:00.031Z,28.03
2018-10-18T23:37:29.315Z,28.97
2018-10-18T23:39:58.537Z,27.73
2018-10-18T23:42:27.629Z,27.53
2018-10-18T23:44:57.113Z,25.53
2018-10-18T23:47:26.650Z,26.70
2018-10-18T23:49:55.729Z,25.30
2018-10-18T23:52:25.081Z,26.60
2018-10-18T23:54:54.377Z,28.47
2018-10-18T23:57:23.755Z,27.90
2018-10-18T23:59:53.061Z,23.33
